Sedgwick Reserve, California Weather observations

Data are for 10 minute period ending at time listed.
 Day   Time   Solar   Ave.   Ave.  Ave.  Vector  Max.   Baro.   Total    
  of    of     Rad.   Air    Rel.  Wind   Wind   Wind  Press.  Precip.   
Year   Day            Temp.  Hum.  Speed  Dir.   Gust                    
2017   (PST)  Kw/m2    F      %     mph   deg.    mph    mb.     in.     
-------------------------------------------------------------------------
 177    2:20   0.00   51.5    92    1.6   340     2.7   973.0    0.00 
 177    2:30   0.00   52.0    92    1.6   342     3.9   972.9    0.00 
 177    2:40   0.00   51.7    92    1.6   304     3.0   972.9    0.00 
 177    2:50   0.00   51.5    93    1.3   322     4.0   972.8    0.00 
 177    3:00   0.00   51.8    92    0.7   199     1.6   972.7    0.00 
 177    3:10   0.00   51.3    92    1.3     4     3.3   972.6    0.00 
 177    3:20   0.00   51.5    93    2.1   340     5.0   972.6    0.00 
 177    3:30   0.00   50.8    93    3.4   340     5.6   972.6    0.00 
 177    3:40   0.00   51.5    94    1.9   331     4.0   972.5    0.00 
 177    3:50   0.00   51.6    93    1.3   296     3.8   972.5    0.00 
 177    4:00   0.00   51.8    93    1.8    24     4.0   972.5    0.00 
 177    4:10   0.00   51.8    93    1.5   231     2.5   972.6    0.00 
 177    4:20   0.00   51.7    93    2.3   296     3.1   972.7    0.00 
 177    4:30   0.00   51.5    94    2.8     7     3.9   972.8    0.00 
 177    4:40   0.00   51.6    94    1.4   342     2.9   972.9    0.00 
 177    4:50   0.00   52.1    94    0.6   245     1.4   972.9    0.00 
 177    5:00   0.00   51.6    94    0.7   245     1.9   972.9    0.00 
 177    5:10   0.01   51.3    94    1.1   220     1.8   972.9    0.00 
 177    5:20   0.01   51.7    94    0.4   207     1.2   972.9    0.00 
 177    5:30   0.01   51.3    94    0.4    57     1.8   973.0    0.00 
 177    5:40   0.03   51.3    94    0.8   268     2.0   973.0    0.00 
 177    5:50   0.03   52.1    94    1.3   324     3.6   973.1    0.00 
 177    6:00   0.18   53.7    90    3.7     1     5.6   973.1    0.00 
 177    6:10   0.22   55.1    87    1.7     5     4.5   973.2    0.00 
 177    6:20   0.26   57.2    84    0.4   212     1.2   973.2    0.00 
 177    6:30   0.29   60.5    77    0.6   107     1.6   973.3    0.00 
 177    6:40   0.33   62.3    73    0.5    48     2.4   973.4    0.00 
 177    6:50   0.36   64.8    69    0.3    84     1.7   973.4    0.00 
 177    7:00   0.40   66.1    67    0.8   170     1.9   973.4    0.00 
 177    7:10   0.44   66.5    66    1.3   138     2.9   973.3    0.00 
 177    7:20   0.47   68.2    63    2.4   108     5.0   973.3    0.00 
 177    7:30   0.50   69.3    60    3.4   116     5.6   973.3    0.00 
 177    7:40   0.54   69.0    60    2.9   121     5.1   973.2    0.00 
 177    7:50   0.57   71.0    56    2.6   115     4.6   973.2    0.00 
 177    8:00   0.60   72.4    54    3.0   124     5.0   973.0    0.00 
 177    8:10   0.63   73.0    53    3.9   129     6.5   973.0    0.00 
 177    8:20   0.66   74.3    51    3.6   121     5.9   972.9    0.00 
 177    8:30   0.69   75.5    50    3.8   126     6.7   972.9    0.00 
 177    8:40   0.72   77.0    48    3.6   137     6.2   972.8    0.00 
 177    8:50   0.74   78.0    47    3.9   166     6.9   972.8    0.00 
 177    9:00   0.77   78.7    46    3.5   151     6.5   972.9    0.00 
 177    9:10   0.80   79.6    45    4.1   160     7.3   972.8    0.00 
 177    9:20   0.82   80.8    44    4.3   149     8.1   972.8    0.00 
 177    9:30   0.84   80.6    43    6.3   150    10.0   972.9    0.00 
 177    9:40   0.86   80.3    43    5.6   171    10.3   973.0    0.00 
 177    9:50   0.88   81.1    42    6.5   167     9.8   973.1    0.00 
 177   10:00   0.89   82.4    40    6.1   166     9.2   973.1    0.00 
 177   10:10   0.91   83.6    38    5.9   169    10.8   973.1    0.00 
 177   10:20   0.92   84.9    36    6.7   183    12.4   973.1    0.00 
 177   10:30   0.94   85.8    32    6.5   230    11.2   973.2    0.00 
 177   10:40   0.95   86.6    30    7.6   232    11.8   973.2    0.00 
 177   10:50   0.95   87.5    31    8.6   262    12.7   973.2    0.00 
 177   11:00   0.97   87.7    30    6.7   241    12.8   973.3    0.00 
 177   11:10   0.99   88.7    29    7.0   249    12.9   973.3    0.00 
 177   11:20   0.98   88.6    30    8.2   244    14.4   973.3    0.00 
 177   11:30   0.98   88.3    30   10.8   239    15.1   973.2    0.00 
 177   11:40   0.95   89.2    28    9.1   234    15.1   973.1    0.00 
 177   11:50   0.98   91.0    24    8.4   268    12.8   973.1    0.00 
 177   12:00   0.98   91.0    23    8.7   254    12.6   973.1    0.00 
 177   12:10   0.98   92.2    22    8.4   262    15.7   973.1    0.00 
 177   12:20   0.98   92.5    22    9.7   271    14.9   973.1    0.00 
 177   12:30   0.97   92.9    22    7.9   278    12.6   973.1    0.00 
 177   12:40   0.96   92.5    25    9.5   261    15.1   973.1    0.00 
 177   12:50   0.96   91.9    24   10.2   263    15.3   973.1    0.00 
 177   13:00   0.95   91.0    24   11.6   273    17.0   973.2    0.00 
 177   13:10   0.94   90.1    26   13.7   266    18.9   973.1    0.00 
 177   13:20   0.93   90.0    26   12.6   276    17.9   973.1    0.00 
 177   13:30   0.91   89.8    26   13.4   275    19.4   973.1    0.00 
 177   13:40   0.90   90.0    24   12.6   274    20.1   973.1    0.00 
 177   13:50   0.88   89.1    23   13.8   270    20.8   973.1    0.00 
 177   14:00   0.85   89.4    21   13.5   265    19.1   973.1    0.00 
 177   14:10   0.83   89.8    19   11.1   270    18.3   973.2    0.00 
 177   14:20   0.81   89.8    19   11.0   262    17.1   973.1    0.00 
 177   14:30   0.79   89.3    18   12.9   272    19.6   973.0    0.00 
 177   14:40   0.76   89.8    18   13.3   274    20.8   972.9    0.00 
 177   14:50   0.73   88.5    18   16.1   273    22.6   972.9    0.00 
 177   15:00   0.71   87.9    18   17.1   271    22.8   972.8    0.00 
 177   15:10   0.68   87.6    18   14.9   273    22.6   972.7    0.00 
 177   15:20   0.65   88.1    19   14.5   280    23.6   972.6    0.00 
 177   15:30   0.62   87.1    20   15.8   274    23.2   972.5    0.00 
 177   15:40   0.59   86.9    18   14.6   268    21.2   972.3    0.00 
 177   15:50   0.56   87.4    20   12.7   262    20.3   972.2    0.00 
 177   16:00   0.52   87.0    22   12.0   263    17.2   972.1    0.00 
 177   16:10   0.49   86.8    23   10.0   263    17.3   972.1    0.00 
 177   16:20   0.46   85.4    25   12.2   266    18.4   972.0    0.00 
 177   16:30   0.43   86.3    25    7.5   272    13.3   971.8    0.00 
 177   16:40   0.39   86.4    25    8.1   272    14.4   971.6    0.00 
 177   16:50   0.36   86.7    24    6.8   272    13.0   971.6    0.00 
 177   17:00   0.32   85.9    26    6.9   264    14.7   971.6    0.00 
 177   17:10   0.29   84.5    29    7.6   262    13.2   971.6    0.00 
 177   17:20   0.26   84.2    30    5.1   258    10.7   971.6    0.00 
 177   17:30   0.22   82.3    34    7.4   272    12.4   971.6    0.00 
 177   17:40   0.19   82.0    34    5.8   262    11.0   971.6    0.00 
 177   17:50   0.16   81.4    35    6.8   255    11.0   971.6    0.00 
 177   18:00   0.13   79.5    38    8.9   252    13.6   971.5    0.00 
 177   18:10   0.10   79.1    38    6.9   249     9.9   971.5    0.00 
 177   18:20   0.07   78.1    40    8.0   244    10.4   971.5    0.00 
 177   18:30   0.05   77.2    42    5.5   231     9.8   971.6    0.00 
 177   18:40   0.03   74.6    48    5.6   141    10.2   971.7    0.00 
 177   18:50   0.01   70.8    55    7.0   127     9.9   971.7    0.00 
 177   19:00   0.01   69.1    58    4.4   115     8.6   971.8    0.00 
 177   19:10   0.00   67.7    60    3.7   109     6.4   972.0    0.00 
 177   19:20   0.00   66.7    62    3.3   126     5.4   972.2    0.00 
 177   19:30   0.00   65.7    64    2.9   109     4.8   972.3    0.00 
 177   19:40   0.00   64.8    66    3.4   109     4.7   972.5    0.00 
 177   19:50   0.00   64.1    67    2.1    94     3.8   972.5    0.00 
 177   20:00   0.00   63.5    68    1.8    91     4.2   972.7    0.00 
 177   20:10   0.00   62.8    70    2.0    79     3.3   972.8    0.00 
 177   20:20   0.00   62.0    71    1.6    83     2.7   972.9    0.00 
 177   20:30   0.00   61.3    73    1.8    45     2.6   973.0    0.00 
 177   20:40   0.00   60.7    73    1.2    39     2.6   973.2    0.00 
 177   20:50   0.00   59.8    72    0.3   101     1.6   973.3    0.00 
 177   21:00   0.00   59.0    74    1.7    22     2.9   973.4    0.00 
 177   21:10   0.00   58.1    75    1.2    16     2.8   973.3    0.00 
 177   21:20   0.00   57.4    76    0.7   319     1.8   973.3    0.00 
 177   21:30   0.00   56.4    76    1.4   243     2.4   973.4    0.00 
 177   21:40   0.00   56.4    76    0.8    37     2.2   973.4    0.00 
 177   21:50   0.00   55.6    77    1.8   354     2.6   973.4    0.00 
 177   22:00   0.00   55.2    78    0.6   261     2.0   973.5    0.00 
 177   22:10   0.00   54.9    79    1.2    19     2.6   973.6    0.00 
 177   22:20   0.00   54.3    81    1.9    20     2.6   973.6    0.00 
 177   22:30   0.00   54.0    82    0.2   353     1.2   973.6    0.00 
 177   22:40   0.00   53.0    83    2.2     6     2.7   973.6    0.00 
 177   22:50   0.00   52.5    83    0.5   307     1.7   973.6    0.00 
 177   23:00   0.00   52.4    84    2.2   358     4.2   973.4    0.00 
 177   23:10   0.00   51.8    86    3.4   357     4.2   973.3    0.00 
 177   23:20   0.00   51.5    87    2.4   358     3.5   973.3    0.00 
 177   23:30   0.00   51.2    87    2.2   358     3.7   973.2    0.00 
 177   23:40   0.00   51.0    87    0.0     0     0.4   973.2    0.00 
 177   23:50   0.00   51.0    87    0.3    17     1.7   973.2    0.00 
 178    0:00   0.00   50.3    87    0.2   239     1.2   973.1    0.00 
 178    0:10   0.00   50.3    88    0.7   256     1.7   972.9    0.00 
 178    0:20   0.00   50.4    88    0.3   281     1.5   972.8    0.00 
 178    0:30   0.00   49.6    89    0.7    15     1.9   972.7    0.00 
 178    0:40   0.00   49.0    90    2.3     5     3.1   972.5    0.00 
 178    0:50   0.00   49.0    91    1.5   274     2.3   972.4    0.00 
 178    1:00   0.00   49.1    91    0.2    88     0.9   972.3    0.00 
 178    1:10   0.00   48.5    90    0.5    71     1.5   972.3    0.00 
 178    1:20   0.00   48.1    91    0.2   351     1.5   972.2    0.00 
 178    1:30   0.00   48.3    92    0.0     0     0.0   972.1    0.00 
 178    1:40   0.00   48.3    92    0.6    16     2.0   972.1    0.00 
 178    1:50   0.00   47.9    92    0.4   320     1.7   972.0    0.00 
 178    2:00   0.00   48.0    92    0.6   250     2.3   972.0    0.00 
 178    2:10   0.00   48.1    92    0.0     0     0.0   971.9    0.00 

Return to Sedgwick Reserve graphs page.


Western Regional Climate Center,wrcc@dri.edu